sensor_id;sensor_type;location;lat;lon;timestamp;P1;durP1;ratioP1;P2;durP2;ratioP2
58643;SDS011;44411;49.994;8.660;2023-05-07T00:00:50;4.17;;;2.10;;
58643;SDS011;44411;49.994;8.660;2023-05-07T00:03:16;3.50;;;2.13;;
58643;SDS011;44411;49.994;8.660;2023-05-07T00:05:41;4.43;;;2.07;;
58643;SDS011;44411;49.994;8.660;2023-05-07T00:08:07;4.20;;;2.22;;
58643;SDS011;44411;49.994;8.660;2023-05-07T00:10:32;3.78;;;2.35;;
58643;SDS011;44411;49.994;8.660;2023-05-07T00:12:57;4.50;;;2.37;;
58643;SDS011;44411;49.994;8.660;2023-05-07T00:15:23;4.72;;;2.30;;
58643;SDS011;44411;49.994;8.660;2023-05-07T00:17:48;4.23;;;2.53;;
58643;SDS011;44411;49.994;8.660;2023-05-07T00:20:13;3.63;;;2.10;;
58643;SDS011;44411;49.994;8.660;2023-05-07T00:22:38;3.97;;;2.13;;
58643;SDS011;44411;49.994;8.660;2023-05-07T00:25:04;4.93;;;2.00;;
58643;SDS011;44411;49.994;8.660;2023-05-07T00:27:30;4.28;;;2.67;;
58643;SDS011;44411;49.994;8.660;2023-05-07T00:29:55;5.93;;;2.30;;
58643;SDS011;44411;49.994;8.660;2023-05-07T00:32:20;6.43;;;3.23;;
58643;SDS011;44411;49.994;8.660;2023-05-07T00:34:45;4.87;;;2.70;;
58643;SDS011;44411;49.994;8.660;2023-05-07T00:37:10;5.17;;;2.60;;
58643;SDS011;44411;49.994;8.660;2023-05-07T00:39:36;4.57;;;2.67;;
58643;SDS011;44411;49.994;8.660;2023-05-07T00:42:02;4.73;;;2.30;;
58643;SDS011;44411;49.994;8.660;2023-05-07T00:44:27;4.10;;;2.35;;
58643;SDS011;44411;49.994;8.660;2023-05-07T00:46:53;3.75;;;2.75;;
58643;SDS011;44411;49.994;8.660;2023-05-07T00:49:18;5.75;;;2.65;;
58643;SDS011;44411;49.994;8.660;2023-05-07T00:51:44;4.82;;;2.80;;
58643;SDS011;44411;49.994;8.660;2023-05-07T00:54:10;4.00;;;2.60;;
58643;SDS011;44411;49.994;8.660;2023-05-07T00:56:36;4.07;;;2.38;;
58643;SDS011;44411;49.994;8.660;2023-05-07T00:59:01;3.23;;;2.00;;
58643;SDS011;44411;49.994;8.660;2023-05-07T01:01:27;4.57;;;2.38;;
58643;SDS011;44411;49.994;8.660;2023-05-07T01:03:52;3.72;;;2.13;;
58643;SDS011;44411;49.994;8.660;2023-05-07T01:06:18;5.15;;;2.65;;
58643;SDS011;44411;49.994;8.660;2023-05-07T01:08:43;3.80;;;2.30;;
58643;SDS011;44411;49.994;8.660;2023-05-07T01:11:09;3.90;;;2.35;;
58643;SDS011;44411;49.994;8.660;2023-05-07T01:13:35;4.07;;;2.40;;
58643;SDS011;44411;49.994;8.660;2023-05-07T01:16:01;4.47;;;2.83;;
58643;SDS011;44411;49.994;8.660;2023-05-07T01:18:27;4.15;;;2.50;;
58643;SDS011;44411;49.994;8.660;2023-05-07T01:20:54;5.43;;;2.40;;
58643;SDS011;44411;49.994;8.660;2023-05-07T01:23:20;4.45;;;2.55;;
58643;SDS011;44411;49.994;8.660;2023-05-07T01:25:52;4.15;;;2.30;;
58643;SDS011;44411;49.994;8.660;2023-05-07T01:28:18;3.67;;;2.35;;
58643;SDS011;44411;49.994;8.660;2023-05-07T01:30:43;3.80;;;2.30;;
58643;SDS011;44411;49.994;8.660;2023-05-07T01:33:11;4.13;;;2.40;;
58643;SDS011;44411;49.994;8.660;2023-05-07T01:35:39;4.60;;;2.75;;
58643;SDS011;44411;49.994;8.660;2023-05-07T01:38:05;5.80;;;2.88;;
58643;SDS011;44411;49.994;8.660;2023-05-07T01:40:31;6.60;;;2.90;;
58643;SDS011;44411;49.994;8.660;2023-05-07T01:42:56;3.75;;;2.22;;
58643;SDS011;44411;49.994;8.660;2023-05-07T01:45:22;4.80;;;2.53;;
58643;SDS011;44411;49.994;8.660;2023-05-07T01:47:47;5.45;;;2.65;;
58643;SDS011;44411;49.994;8.660;2023-05-07T01:50:13;4.28;;;2.47;;
58643;SDS011;44411;49.994;8.660;2023-05-07T01:52:40;4.85;;;2.65;;
58643;SDS011;44411;49.994;8.660;2023-05-07T01:55:06;4.78;;;2.80;;
58643;SDS011;44411;49.994;8.660;2023-05-07T01:57:31;4.90;;;2.67;;
58643;SDS011;44411;49.994;8.660;2023-05-07T01:59:56;5.07;;;2.87;;
58643;SDS011;44411;49.994;8.660;2023-05-07T06:01:09;5.15;;;3.13;;
58643;SDS011;44411;49.994;8.660;2023-05-07T06:03:35;5.57;;;2.90;;
58643;SDS011;44411;49.994;8.660;2023-05-07T06:06:00;5.07;;;2.83;;
58643;SDS011;44411;49.994;8.660;2023-05-07T06:08:29;4.43;;;2.88;;
58643;SDS011;44411;49.994;8.660;2023-05-07T06:10:54;5.43;;;3.30;;
58643;SDS011;44411;49.994;8.660;2023-05-07T06:13:19;4.60;;;3.15;;
58643;SDS011;44411;49.994;8.660;2023-05-07T06:15:46;5.13;;;3.00;;
58643;SDS011;44411;49.994;8.660;2023-05-07T06:18:11;4.95;;;3.22;;
58643;SDS011;44411;49.994;8.660;2023-05-07T06:20:36;4.25;;;3.05;;
58643;SDS011;44411;49.994;8.660;2023-05-07T06:23:02;4.95;;;3.00;;
58643;SDS011;44411;49.994;8.660;2023-05-07T06:25:27;7.13;;;3.40;;
58643;SDS011;44411;49.994;8.660;2023-05-07T06:27:52;4.88;;;3.00;;
58643;SDS011;44411;49.994;8.660;2023-05-07T06:30:17;4.60;;;2.60;;
58643;SDS011;44411;49.994;8.660;2023-05-07T06:32:43;6.43;;;2.77;;
58643;SDS011;44411;49.994;8.660;2023-05-07T06:35:13;4.90;;;3.23;;
58643;SDS011;44411;49.994;8.660;2023-05-07T06:37:38;5.25;;;2.92;;
58643;SDS011;44411;49.994;8.660;2023-05-07T06:40:05;5.13;;;3.10;;
58643;SDS011;44411;49.994;8.660;2023-05-07T06:42:30;5.35;;;3.05;;
58643;SDS011;44411;49.994;8.660;2023-05-07T06:44:55;6.30;;;2.97;;
58643;SDS011;44411;49.994;8.660;2023-05-07T06:47:21;4.63;;;2.87;;
58643;SDS011;44411;49.994;8.660;2023-05-07T06:49:46;5.03;;;3.20;;
58643;SDS011;44411;49.994;8.660;2023-05-07T06:52:11;5.53;;;3.22;;
58643;SDS011;44411;49.994;8.660;2023-05-07T06:54:36;6.78;;;3.50;;
58643;SDS011;44411;49.994;8.660;2023-05-07T06:57:02;4.47;;;3.13;;
58643;SDS011;44411;49.994;8.660;2023-05-07T06:59:27;4.93;;;3.33;;
58643;SDS011;44411;49.994;8.660;2023-05-07T07:01:52;6.03;;;3.23;;
58643;SDS011;44411;49.994;8.660;2023-05-07T07:04:18;4.88;;;3.03;;
58643;SDS011;44411;49.994;8.660;2023-05-07T07:06:43;4.90;;;3.40;;
58643;SDS011;44411;49.994;8.660;2023-05-07T07:09:08;4.30;;;2.97;;
58643;SDS011;44411;49.994;8.660;2023-05-07T07:11:34;5.43;;;3.22;;
58643;SDS011;44411;49.994;8.660;2023-05-07T07:13:59;6.68;;;3.50;;
58643;SDS011;44411;49.994;8.660;2023-05-07T07:16:24;7.78;;;3.30;;
58643;SDS011;44411;49.994;8.660;2023-05-07T07:18:50;5.00;;;3.22;;
58643;SDS011;44411;49.994;8.660;2023-05-07T07:21:15;4.88;;;2.90;;
58643;SDS011;44411;49.994;8.660;2023-05-07T07:23:41;4.70;;;2.95;;
58643;SDS011;44411;49.994;8.660;2023-05-07T07:26:06;8.02;;;3.47;;
58643;SDS011;44411;49.994;8.660;2023-05-07T07:28:31;5.18;;;3.33;;
58643;SDS011;44411;49.994;8.660;2023-05-07T07:30:56;4.70;;;3.30;;
58643;SDS011;44411;49.994;8.660;2023-05-07T07:33:22;5.07;;;3.27;;
58643;SDS011;44411;49.994;8.660;2023-05-07T07:35:47;5.77;;;3.30;;
58643;SDS011;44411;49.994;8.660;2023-05-07T07:38:12;5.40;;;3.70;;
58643;SDS011;44411;49.994;8.660;2023-05-07T07:40:37;4.83;;;3.27;;
58643;SDS011;44411;49.994;8.660;2023-05-07T07:43:02;6.07;;;3.70;;
58643;SDS011;44411;49.994;8.660;2023-05-07T07:45:28;5.30;;;3.85;;
58643;SDS011;44411;49.994;8.660;2023-05-07T07:47:54;5.00;;;3.20;;
58643;SDS011;44411;49.994;8.660;2023-05-07T07:50:19;5.97;;;3.53;;
58643;SDS011;44411;49.994;8.660;2023-05-07T07:52:44;5.40;;;3.53;;
58643;SDS011;44411;49.994;8.660;2023-05-07T07:55:10;5.97;;;4.03;;
58643;SDS011;44411;49.994;8.660;2023-05-07T07:57:35;8.30;;;3.72;;
58643;SDS011;44411;49.994;8.660;2023-05-07T08:00:00;6.63;;;3.72;;
58643;SDS011;44411;49.994;8.660;2023-05-07T08:02:26;5.93;;;3.60;;
58643;SDS011;44411;49.994;8.660;2023-05-07T08:04:51;4.68;;;3.28;;
58643;SDS011;44411;49.994;8.660;2023-05-07T08:07:17;5.53;;;3.22;;
58643;SDS011;44411;49.994;8.660;2023-05-07T08:09:45;5.15;;;3.42;;
58643;SDS011;44411;49.994;8.660;2023-05-07T08:12:10;4.88;;;3.30;;
58643;SDS011;44411;49.994;8.660;2023-05-07T08:14:36;5.38;;;3.25;;
58643;SDS011;44411;49.994;8.660;2023-05-07T08:17:02;5.13;;;3.53;;
58643;SDS011;44411;49.994;8.660;2023-05-07T08:19:27;4.90;;;3.20;;
58643;SDS011;44411;49.994;8.660;2023-05-07T08:21:52;6.03;;;4.00;;
58643;SDS011;44411;49.994;8.660;2023-05-07T08:24:17;4.80;;;3.40;;
58643;SDS011;44411;49.994;8.660;2023-05-07T08:26:43;4.40;;;3.17;;
58643;SDS011;44411;49.994;8.660;2023-05-07T08:29:08;4.90;;;3.67;;
58643;SDS011;44411;49.994;8.660;2023-05-07T08:31:34;5.43;;;3.50;;
58643;SDS011;44411;49.994;8.660;2023-05-07T08:33:59;4.50;;;3.23;;
58643;SDS011;44411;49.994;8.660;2023-05-07T08:36:24;5.07;;;3.45;;
58643;SDS011;44411;49.994;8.660;2023-05-07T08:38:50;5.38;;;3.72;;
58643;SDS011;44411;49.994;8.660;2023-05-07T08:41:15;5.88;;;4.05;;
58643;SDS011;44411;49.994;8.660;2023-05-07T08:43:41;5.70;;;3.60;;
58643;SDS011;44411;49.994;8.660;2023-05-07T08:46:07;5.28;;;3.90;;
58643;SDS011;44411;49.994;8.660;2023-05-07T08:48:33;5.63;;;3.67;;
58643;SDS011;44411;49.994;8.660;2023-05-07T08:50:59;5.50;;;3.63;;
58643;SDS011;44411;49.994;8.660;2023-05-07T08:53:24;6.57;;;4.10;;
58643;SDS011;44411;49.994;8.660;2023-05-07T08:55:49;6.87;;;3.43;;
58643;SDS011;44411;49.994;8.660;2023-05-07T08:58:15;6.05;;;3.70;;
58643;SDS011;44411;49.994;8.660;2023-05-07T09:00:40;6.22;;;3.78;;
58643;SDS011;44411;49.994;8.660;2023-05-07T09:03:06;5.63;;;4.00;;
58643;SDS011;44411;49.994;8.660;2023-05-07T09:05:31;5.73;;;3.90;;
58643;SDS011;44411;49.994;8.660;2023-05-07T09:08:01;6.30;;;3.43;;
58643;SDS011;44411;49.994;8.660;2023-05-07T09:10:27;6.28;;;4.07;;
58643;SDS011;44411;49.994;8.660;2023-05-07T09:12:52;6.70;;;3.83;;
58643;SDS011;44411;49.994;8.660;2023-05-07T09:15:17;5.97;;;3.78;;
58643;SDS011;44411;49.994;8.660;2023-05-07T09:17:43;5.20;;;3.53;;
58643;SDS011;44411;49.994;8.660;2023-05-07T09:20:08;5.72;;;3.65;;
58643;SDS011;44411;49.994;8.660;2023-05-07T09:22:35;5.30;;;4.03;;
58643;SDS011;44411;49.994;8.660;2023-05-07T09:25:01;5.10;;;3.60;;
58643;SDS011;44411;49.994;8.660;2023-05-07T09:27:26;5.27;;;3.53;;
58643;SDS011;44411;49.994;8.660;2023-05-07T09:29:51;5.57;;;4.00;;
58643;SDS011;44411;49.994;8.660;2023-05-07T09:32:16;5.77;;;3.97;;
58643;SDS011;44411;49.994;8.660;2023-05-07T09:34:42;5.80;;;4.03;;
58643;SDS011;44411;49.994;8.660;2023-05-07T09:37:07;5.72;;;4.15;;
58643;SDS011;44411;49.994;8.660;2023-05-07T09:39:39;7.13;;;4.15;;
58643;SDS011;44411;49.994;8.660;2023-05-07T09:42:05;5.63;;;3.95;;
58643;SDS011;44411;49.994;8.660;2023-05-07T09:44:31;6.43;;;3.75;;
58643;SDS011;44411;49.994;8.660;2023-05-07T09:46:56;4.72;;;3.65;;
58643;SDS011;44411;49.994;8.660;2023-05-07T09:49:24;5.15;;;3.55;;
58643;SDS011;44411;49.994;8.660;2023-05-07T09:51:52;5.45;;;3.80;;
58643;SDS011;44411;49.994;8.660;2023-05-07T09:54:18;4.70;;;3.83;;
58643;SDS011;44411;49.994;8.660;2023-05-07T09:56:44;5.07;;;3.55;;
58643;SDS011;44411;49.994;8.660;2023-05-07T09:59:10;4.72;;;3.70;;
58643;SDS011;44411;49.994;8.660;2023-05-07T10:01:37;4.97;;;3.75;;
58643;SDS011;44411;49.994;8.660;2023-05-07T10:04:03;7.43;;;3.65;;
58643;SDS011;44411;49.994;8.660;2023-05-07T10:06:29;6.45;;;4.60;;
58643;SDS011;44411;49.994;8.660;2023-05-07T10:08:55;5.47;;;3.65;;
58643;SDS011;44411;49.994;8.660;2023-05-07T10:11:21;5.97;;;3.70;;
58643;SDS011;44411;49.994;8.660;2023-05-07T10:13:47;5.20;;;3.90;;
58643;SDS011;44411;49.994;8.660;2023-05-07T10:16:12;5.38;;;3.72;;
58643;SDS011;44411;49.994;8.660;2023-05-07T10:18:38;5.45;;;3.38;;
58643;SDS011;44411;49.994;8.660;2023-05-07T10:21:07;4.53;;;3.30;;
58643;SDS011;44411;49.994;8.660;2023-05-07T10:23:33;5.45;;;3.85;;
58643;SDS011;44411;49.994;8.660;2023-05-07T10:25:59;5.38;;;3.83;;
58643;SDS011;44411;49.994;8.660;2023-05-07T10:28:24;4.90;;;3.20;;
58643;SDS011;44411;49.994;8.660;2023-05-07T10:33:34;4.07;;;3.17;;
58643;SDS011;44411;49.994;8.660;2023-05-07T10:36:01;5.40;;;3.22;;
58643;SDS011;44411;49.994;8.660;2023-05-07T10:38:29;5.90;;;3.50;;
58643;SDS011;44411;49.994;8.660;2023-05-07T10:40:54;5.03;;;3.42;;
58643;SDS011;44411;49.994;8.660;2023-05-07T10:43:20;7.07;;;3.83;;
58643;SDS011;44411;49.994;8.660;2023-05-07T10:48:29;5.35;;;3.33;;
58643;SDS011;44411;49.994;8.660;2023-05-07T10:51:40;4.13;;;2.90;;
58643;SDS011;44411;49.994;8.660;2023-05-07T10:53:40;4.90;;;3.50;;
58643;SDS011;44411;49.994;8.660;2023-05-07T10:58:43;5.93;;;3.83;;
58643;SDS011;44411;49.994;8.660;2023-05-07T11:01:08;5.15;;;3.00;;
58643;SDS011;44411;49.994;8.660;2023-05-07T11:03:36;5.80;;;3.42;;
58643;SDS011;44411;49.994;8.660;2023-05-07T11:06:21;5.53;;;4.05;;
58643;SDS011;44411;49.994;8.660;2023-05-07T11:11:17;5.43;;;3.20;;
58643;SDS011;44411;49.994;8.660;2023-05-07T11:13:48;4.95;;;3.10;;
58643;SDS011;44411;49.994;8.660;2023-05-07T11:16:20;4.85;;;2.97;;
58643;SDS011;44411;49.994;8.660;2023-05-07T11:18:49;4.78;;;3.10;;
58643;SDS011;44411;49.994;8.660;2023-05-07T11:23:59;4.35;;;2.95;;
58643;SDS011;44411;49.994;8.660;2023-05-07T11:26:24;4.45;;;2.70;;
58643;SDS011;44411;49.994;8.660;2023-05-07T11:28:50;5.75;;;2.58;;
58643;SDS011;44411;49.994;8.660;2023-05-07T11:31:17;4.78;;;2.85;;
58643;SDS011;44411;49.994;8.660;2023-05-07T11:33:45;4.03;;;2.58;;
58643;SDS011;44411;49.994;8.660;2023-05-07T11:36:10;4.72;;;2.70;;
58643;SDS011;44411;49.994;8.660;2023-05-07T11:38:36;3.78;;;2.30;;
58643;SDS011;44411;49.994;8.660;2023-05-07T11:41:02;4.40;;;2.38;;
58643;SDS011;44411;49.994;8.660;2023-05-07T11:43:29;3.63;;;2.05;;
58643;SDS011;44411;49.994;8.660;2023-05-07T11:45:54;3.30;;;2.22;;
58643;SDS011;44411;49.994;8.660;2023-05-07T11:48:20;4.60;;;2.13;;
58643;SDS011;44411;49.994;8.660;2023-05-07T11:50:53;4.10;;;2.03;;
58643;SDS011;44411;49.994;8.660;2023-05-07T11:53:19;3.38;;;2.28;;
58643;SDS011;44411;49.994;8.660;2023-05-07T11:55:45;3.58;;;1.92;;
58643;SDS011;44411;49.994;8.660;2023-05-07T11:58:11;5.00;;;2.45;;
58643;SDS011;44411;49.994;8.660;2023-05-07T12:00:37;3.72;;;2.10;;
58643;SDS011;44411;49.994;8.660;2023-05-07T12:03:03;3.80;;;1.70;;
58643;SDS011;44411;49.994;8.660;2023-05-07T12:05:28;4.07;;;1.95;;
58643;SDS011;44411;49.994;8.660;2023-05-07T12:07:57;3.20;;;2.00;;
58643;SDS011;44411;49.994;8.660;2023-05-07T12:10:22;3.47;;;1.80;;
58643;SDS011;44411;49.994;8.660;2023-05-07T12:12:49;2.45;;;1.50;;
58643;SDS011;44411;49.994;8.660;2023-05-07T12:15:15;4.03;;;2.28;;
58643;SDS011;44411;49.994;8.660;2023-05-07T12:17:41;3.60;;;1.90;;
58643;SDS011;44411;49.994;8.660;2023-05-07T12:20:06;3.55;;;1.98;;
58643;SDS011;44411;49.994;8.660;2023-05-07T12:22:32;2.60;;;1.75;;
58643;SDS011;44411;49.994;8.660;2023-05-07T12:24:58;3.42;;;2.20;;
58643;SDS011;44411;49.994;8.660;2023-05-07T12:27:23;4.60;;;1.92;;
58643;SDS011;44411;49.994;8.660;2023-05-07T12:29:49;3.92;;;2.03;;
58643;SDS011;44411;49.994;8.660;2023-05-07T12:32:18;3.58;;;2.00;;
58643;SDS011;44411;49.994;8.660;2023-05-07T12:34:44;3.40;;;2.00;;
58643;SDS011;44411;49.994;8.660;2023-05-07T12:37:10;3.38;;;1.90;;
58643;SDS011;44411;49.994;8.660;2023-05-07T12:39:35;4.93;;;2.40;;
58643;SDS011;44411;49.994;8.660;2023-05-07T12:42:00;3.73;;;2.33;;
58643;SDS011;44411;49.994;8.660;2023-05-07T12:44:29;4.85;;;2.05;;
58643;SDS011;44411;49.994;8.660;2023-05-07T12:46:55;3.78;;;2.05;;
58643;SDS011;44411;49.994;8.660;2023-05-07T12:49:20;3.13;;;2.13;;
58643;SDS011;44411;49.994;8.660;2023-05-07T12:51:48;3.22;;;2.10;;
58643;SDS011;44411;49.994;8.660;2023-05-07T12:54:27;5.32;;;2.40;;
58643;SDS011;44411;49.994;8.660;2023-05-07T12:56:59;3.05;;;2.00;;
58643;SDS011;44411;49.994;8.660;2023-05-07T12:59:35;2.72;;;2.05;;
58643;SDS011;44411;49.994;8.660;2023-05-07T13:02:01;3.60;;;2.35;;
58643;SDS011;44411;49.994;8.660;2023-05-07T13:04:26;2.95;;;2.08;;
58643;SDS011;44411;49.994;8.660;2023-05-07T13:06:51;3.63;;;2.53;;
58643;SDS011;44411;49.994;8.660;2023-05-07T13:09:16;4.63;;;2.57;;
58643;SDS011;44411;49.994;8.660;2023-05-07T13:11:41;3.90;;;2.20;;
58643;SDS011;44411;49.994;8.660;2023-05-07T13:14:07;4.30;;;2.20;;
58643;SDS011;44411;49.994;8.660;2023-05-07T13:16:33;4.00;;;2.65;;
58643;SDS011;44411;49.994;8.660;2023-05-07T13:18:58;3.57;;;2.77;;
58643;SDS011;44411;49.994;8.660;2023-05-07T13:21:23;3.25;;;2.08;;
58643;SDS011;44411;49.994;8.660;2023-05-07T13:23:49;4.87;;;2.70;;
58643;SDS011;44411;49.994;8.660;2023-05-07T13:26:14;3.77;;;2.23;;
58643;SDS011;44411;49.994;8.660;2023-05-07T13:28:39;5.65;;;2.55;;
58643;SDS011;44411;49.994;8.660;2023-05-07T13:31:08;3.83;;;2.53;;
58643;SDS011;44411;49.994;8.660;2023-05-07T13:33:33;4.15;;;2.70;;
58643;SDS011;44411;49.994;8.660;2023-05-07T13:35:59;3.83;;;2.67;;
58643;SDS011;44411;49.994;8.660;2023-05-07T13:38:25;4.85;;;2.45;;
58643;SDS011;44411;49.994;8.660;2023-05-07T13:40:50;4.07;;;2.50;;
58643;SDS011;44411;49.994;8.660;2023-05-07T13:43:15;4.70;;;2.90;;
58643;SDS011;44411;49.994;8.660;2023-05-07T13:45:42;3.80;;;2.67;;
58643;SDS011;44411;49.994;8.660;2023-05-07T13:48:07;5.73;;;3.37;;
58643;SDS011;44411;49.994;8.660;2023-05-07T13:50:33;4.88;;;2.80;;
58643;SDS011;44411;49.994;8.660;2023-05-07T13:52:58;4.53;;;2.40;;
58643;SDS011;44411;49.994;8.660;2023-05-07T13:55:24;3.17;;;2.33;;
58643;SDS011;44411;49.994;8.660;2023-05-07T13:57:59;3.15;;;1.88;;
58643;SDS011;44411;49.994;8.660;2023-05-07T14:00:25;4.15;;;2.47;;
58643;SDS011;44411;49.994;8.660;2023-05-07T14:02:51;3.45;;;2.35;;
58643;SDS011;44411;49.994;8.660;2023-05-07T14:05:16;3.40;;;2.30;;
58643;SDS011;44411;49.994;8.660;2023-05-07T14:07:42;3.43;;;2.40;;
58643;SDS011;44411;49.994;8.660;2023-05-07T14:10:07;3.90;;;2.70;;
58643;SDS011;44411;49.994;8.660;2023-05-07T14:12:32;3.58;;;2.53;;
58643;SDS011;44411;49.994;8.660;2023-05-07T14:14:57;3.70;;;2.10;;
58643;SDS011;44411;49.994;8.660;2023-05-07T14:17:23;3.78;;;1.92;;
58643;SDS011;44411;49.994;8.660;2023-05-07T14:19:50;3.58;;;2.00;;
58643;SDS011;44411;49.994;8.660;2023-05-07T14:22:15;3.67;;;2.03;;
58643;SDS011;44411;49.994;8.660;2023-05-07T14:24:40;3.70;;;2.30;;
58643;SDS011;44411;49.994;8.660;2023-05-07T14:27:05;3.83;;;2.00;;
58643;SDS011;44411;49.994;8.660;2023-05-07T14:29:31;4.03;;;2.22;;
58643;SDS011;44411;49.994;8.660;2023-05-07T14:31:56;3.60;;;2.17;;
58643;SDS011;44411;49.994;8.660;2023-05-07T14:34:21;3.50;;;2.00;;
58643;SDS011;44411;49.994;8.660;2023-05-07T14:36:46;2.93;;;1.93;;
58643;SDS011;44411;49.994;8.660;2023-05-07T14:39:12;3.53;;;2.30;;
58643;SDS011;44411;49.994;8.660;2023-05-07T14:41:38;3.80;;;1.87;;
58643;SDS011;44411;49.994;8.660;2023-05-07T14:44:03;3.28;;;2.15;;
58643;SDS011;44411;49.994;8.660;2023-05-07T14:46:29;3.25;;;2.10;;
58643;SDS011;44411;49.994;8.660;2023-05-07T14:48:54;5.03;;;2.00;;
58643;SDS011;44411;49.994;8.660;2023-05-07T14:51:20;4.00;;;1.87;;
58643;SDS011;44411;49.994;8.660;2023-05-07T14:53:45;2.92;;;2.05;;
58643;SDS011;44411;49.994;8.660;2023-05-07T14:56:10;3.37;;;2.00;;
58643;SDS011;44411;49.994;8.660;2023-05-07T14:58:36;4.00;;;2.20;;
58643;SDS011;44411;49.994;8.660;2023-05-07T15:01:02;3.17;;;1.92;;
58643;SDS011;44411;49.994;8.660;2023-05-07T15:03:27;2.65;;;1.92;;
58643;SDS011;44411;49.994;8.660;2023-05-07T15:05:52;5.07;;;2.33;;
58643;SDS011;44411;49.994;8.660;2023-05-07T15:08:17;4.20;;;2.13;;
58643;SDS011;44411;49.994;8.660;2023-05-07T15:10:43;3.40;;;2.03;;
58643;SDS011;44411;49.994;8.660;2023-05-07T15:13:08;4.73;;;2.23;;
58643;SDS011;44411;49.994;8.660;2023-05-07T15:15:34;3.03;;;1.80;;
58643;SDS011;44411;49.994;8.660;2023-05-07T15:17:59;2.67;;;1.90;;
58643;SDS011;44411;49.994;8.660;2023-05-07T15:20:25;3.20;;;2.13;;
58643;SDS011;44411;49.994;8.660;2023-05-07T15:22:50;3.00;;;1.90;;
58643;SDS011;44411;49.994;8.660;2023-05-07T15:25:16;3.38;;;2.00;;
58643;SDS011;44411;49.994;8.660;2023-05-07T15:27:41;3.42;;;1.95;;
58643;SDS011;44411;49.994;8.660;2023-05-07T15:30:06;4.03;;;2.43;;
58643;SDS011;44411;49.994;8.660;2023-05-07T15:32:32;4.03;;;1.80;;
58643;SDS011;44411;49.994;8.660;2023-05-07T15:34:57;3.33;;;1.90;;
58643;SDS011;44411;49.994;8.660;2023-05-07T15:37:22;3.53;;;2.07;;
58643;SDS011;44411;49.994;8.660;2023-05-07T15:39:47;3.63;;;2.10;;
58643;SDS011;44411;49.994;8.660;2023-05-07T15:42:13;3.63;;;1.90;;
58643;SDS011;44411;49.994;8.660;2023-05-07T15:44:38;3.33;;;2.07;;
58643;SDS011;44411;49.994;8.660;2023-05-07T15:47:04;3.95;;;2.10;;
58643;SDS011;44411;49.994;8.660;2023-05-07T15:49:29;3.72;;;2.03;;
58643;SDS011;44411;49.994;8.660;2023-05-07T15:51:55;3.87;;;2.27;;
58643;SDS011;44411;49.994;8.660;2023-05-07T15:54:20;3.10;;;2.15;;
58643;SDS011;44411;49.994;8.660;2023-05-07T15:56:46;4.68;;;2.40;;
58643;SDS011;44411;49.994;8.660;2023-05-07T15:59:11;4.18;;;2.03;;
58643;SDS011;44411;49.994;8.660;2023-05-07T16:01:37;4.88;;;2.80;;
58643;SDS011;44411;49.994;8.660;2023-05-07T16:04:02;4.07;;;2.60;;
58643;SDS011;44411;49.994;8.660;2023-05-07T16:06:27;3.38;;;2.10;;
58643;SDS011;44411;49.994;8.660;2023-05-07T16:08:52;3.50;;;2.30;;
58643;SDS011;44411;49.994;8.660;2023-05-07T16:11:18;4.17;;;2.60;;
58643;SDS011;44411;49.994;8.660;2023-05-07T16:13:43;5.07;;;2.57;;
58643;SDS011;44411;49.994;8.660;2023-05-07T16:16:08;3.70;;;2.47;;
58643;SDS011;44411;49.994;8.660;2023-05-07T16:18:33;3.90;;;2.10;;
58643;SDS011;44411;49.994;8.660;2023-05-07T16:21:00;3.30;;;2.35;;
58643;SDS011;44411;49.994;8.660;2023-05-07T16:23:26;5.47;;;2.90;;
58643;SDS011;44411;49.994;8.660;2023-05-07T16:25:51;4.87;;;2.57;;
58643;SDS011;44411;49.994;8.660;2023-05-07T16:28:16;4.10;;;2.73;;
58643;SDS011;44411;49.994;8.660;2023-05-07T16:30:42;3.67;;;2.40;;
58643;SDS011;44411;49.994;8.660;2023-05-07T16:33:07;4.53;;;2.60;;
58643;SDS011;44411;49.994;8.660;2023-05-07T16:35:32;3.90;;;2.60;;
58643;SDS011;44411;49.994;8.660;2023-05-07T16:37:57;3.87;;;2.67;;
58643;SDS011;44411;49.994;8.660;2023-05-07T16:40:22;4.57;;;3.03;;
58643;SDS011;44411;49.994;8.660;2023-05-07T16:42:48;4.90;;;3.08;;
58643;SDS011;44411;49.994;8.660;2023-05-07T16:45:16;5.63;;;2.83;;
58643;SDS011;44411;49.994;8.660;2023-05-07T16:47:43;9.60;;;6.00;;
58643;SDS011;44411;49.994;8.660;2023-05-07T16:50:08;6.38;;;4.03;;
58643;SDS011;44411;49.994;8.660;2023-05-07T16:52:33;5.07;;;3.40;;
58643;SDS011;44411;49.994;8.660;2023-05-07T16:54:58;4.57;;;3.17;;
58643;SDS011;44411;49.994;8.660;2023-05-07T16:57:28;4.28;;;2.80;;
58643;SDS011;44411;49.994;8.660;2023-05-07T16:59:56;5.10;;;2.90;;
58643;SDS011;44411;49.994;8.660;2023-05-07T17:02:23;5.20;;;2.80;;
58643;SDS011;44411;49.994;8.660;2023-05-07T17:04:48;4.45;;;2.60;;
58643;SDS011;44411;49.994;8.660;2023-05-07T17:07:13;6.63;;;3.27;;
58643;SDS011;44411;49.994;8.660;2023-05-07T17:09:41;5.20;;;2.78;;
58643;SDS011;44411;49.994;8.660;2023-05-07T17:12:07;4.30;;;2.57;;
58643;SDS011;44411;49.994;8.660;2023-05-07T17:14:32;5.13;;;3.63;;
58643;SDS011;44411;49.994;8.660;2023-05-07T17:16:57;7.43;;;2.73;;
58643;SDS011;44411;49.994;8.660;2023-05-07T17:19:22;5.87;;;3.53;;
58643;SDS011;44411;49.994;8.660;2023-05-07T17:21:47;5.17;;;2.73;;
58643;SDS011;44411;49.994;8.660;2023-05-07T17:24:13;4.67;;;2.83;;
58643;SDS011;44411;49.994;8.660;2023-05-07T17:26:38;8.60;;;3.63;;
58643;SDS011;44411;49.994;8.660;2023-05-07T17:29:06;6.38;;;3.53;;
58643;SDS011;44411;49.994;8.660;2023-05-07T17:31:31;5.97;;;3.83;;
58643;SDS011;44411;49.994;8.660;2023-05-07T17:33:57;7.22;;;3.33;;
58643;SDS011;44411;49.994;8.660;2023-05-07T17:36:23;4.18;;;2.88;;
58643;SDS011;44411;49.994;8.660;2023-05-07T17:38:48;4.85;;;2.88;;
58643;SDS011;44411;49.994;8.660;2023-05-07T17:41:13;4.97;;;2.73;;
58643;SDS011;44411;49.994;8.660;2023-05-07T17:43:38;6.57;;;3.80;;
58643;SDS011;44411;49.994;8.660;2023-05-07T17:46:03;4.93;;;2.77;;
58643;SDS011;44411;49.994;8.660;2023-05-07T17:48:29;4.97;;;2.63;;
58643;SDS011;44411;49.994;8.660;2023-05-07T17:51:03;4.75;;;2.42;;
58643;SDS011;44411;49.994;8.660;2023-05-07T17:53:29;4.47;;;2.90;;
58643;SDS011;44411;49.994;8.660;2023-05-07T17:55:54;4.85;;;3.40;;
58643;SDS011;44411;49.994;8.660;2023-05-07T17:58:19;4.47;;;2.97;;
58643;SDS011;44411;49.994;8.660;2023-05-07T18:00:46;6.45;;;3.00;;
58643;SDS011;44411;49.994;8.660;2023-05-07T18:03:11;6.75;;;3.50;;
58643;SDS011;44411;49.994;8.660;2023-05-07T18:05:37;7.35;;;3.90;;
58643;SDS011;44411;49.994;8.660;2023-05-07T18:08:03;4.90;;;3.13;;
58643;SDS011;44411;49.994;8.660;2023-05-07T18:10:28;5.78;;;3.20;;
58643;SDS011;44411;49.994;8.660;2023-05-07T18:12:54;5.37;;;3.57;;
58643;SDS011;44411;49.994;8.660;2023-05-07T18:15:19;5.67;;;3.60;;
58643;SDS011;44411;49.994;8.660;2023-05-07T18:17:44;6.03;;;3.70;;
58643;SDS011;44411;49.994;8.660;2023-05-07T18:20:09;6.67;;;4.03;;
58643;SDS011;44411;49.994;8.660;2023-05-07T18:22:35;6.85;;;3.88;;
58643;SDS011;44411;49.994;8.660;2023-05-07T18:25:01;6.15;;;3.97;;
58643;SDS011;44411;49.994;8.660;2023-05-07T18:27:26;6.20;;;4.07;;
58643;SDS011;44411;49.994;8.660;2023-05-07T18:29:51;6.47;;;4.13;;
58643;SDS011;44411;49.994;8.660;2023-05-07T18:32:16;8.43;;;4.03;;
58643;SDS011;44411;49.994;8.660;2023-05-07T18:34:42;7.15;;;5.00;;
58643;SDS011;44411;49.994;8.660;2023-05-07T18:37:07;5.23;;;4.20;;
58643;SDS011;44411;49.994;8.660;2023-05-07T18:39:33;8.20;;;5.13;;
58643;SDS011;44411;49.994;8.660;2023-05-07T18:41:58;7.35;;;5.38;;
58643;SDS011;44411;49.994;8.660;2023-05-07T18:44:24;7.03;;;5.10;;
58643;SDS011;44411;49.994;8.660;2023-05-07T18:46:49;6.78;;;4.50;;
58643;SDS011;44411;49.994;8.660;2023-05-07T18:49:15;8.20;;;5.17;;
58643;SDS011;44411;49.994;8.660;2023-05-07T18:51:40;7.57;;;4.80;;